Time;durP1;ratioP1;P1;durP2;ratioP2;P2;SDS_P1;SDS_P2;PMS_P1;PMS_P2;Temp;Humidity;BMP_temperature;BMP_pressure;BME280_temperature;BME280_humidity;BME280_pressure;Samples;Min_cycle;Max_cycle;Signal;HPM_P1;HPM_P2
2023/04/09 00:02:21;;;;;;;68.07;40.95;;;8.90;99.90;;;;;;5043178;28;20124;-76
2023/04/09 00:04:46;;;;;;;70.03;41.33;;;8.80;99.90;;;;;;5026629;28;20112;-76
2023/04/09 00:07:12;;;;;;;74.65;40.67;;;8.80;99.90;;;;;;5024590;28;20681;-76
2023/04/09 00:09:38;;;;;;;68.72;41.00;;;8.80;99.90;;;;;;5021740;28;20060;-75
2023/04/09 00:12:04;;;;;;;74.75;42.50;;;8.70;99.90;;;;;;5037597;28;20402;-76
2023/04/09 00:14:29;;;;;;;74.88;42.20;;;8.70;99.90;;;;;;5027959;28;20080;-76
2023/04/09 00:16:55;;;;;;;82.53;46.60;;;8.70;99.90;;;;;;5022309;28;20491;-75
2023/04/09 00:19:21;;;;;;;78.45;44.50;;;8.70;99.90;;;;;;5026645;28;20163;-75
2023/04/09 00:21:47;;;;;;;75.25;43.67;;;8.70;99.90;;;;;;5027132;28;20069;-77
2023/04/09 00:24:13;;;;;;;84.70;45.75;;;8.90;99.90;;;;;;5031270;28;20498;-76
2023/04/09 00:26:42;;;;;;;78.47;43.50;;;8.60;99.90;;;;;;5030853;28;20055;-75
2023/04/09 00:29:07;;;;;;;81.85;44.95;;;8.60;99.90;;;;;;5035550;28;20124;-75
2023/04/09 00:31:33;;;;;;;78.72;44.20;;;8.60;99.90;;;;;;5031496;28;20029;-74
2023/04/09 00:33:59;;;;;;;74.65;43.03;;;8.60;99.90;;;;;;5011756;28;20434;-76
2023/04/09 00:36:25;;;;;;;76.63;41.00;;;8.60;99.90;;;;;;5029428;28;20092;-76
2023/04/09 00:38:52;;;;;;;73.47;40.60;;;8.50;99.90;;;;;;5027440;28;20038;-76
2023/04/09 00:41:18;;;;;;;85.72;44.38;;;8.60;99.90;;;;;;5037909;28;20060;-75
2023/04/09 00:43:44;;;;;;;80.40;44.60;;;8.60;99.90;;;;;;5036301;28;20413;-75
2023/04/09 00:46:10;;;;;;;78.85;44.13;;;8.50;99.90;;;;;;5029850;28;20044;-75
2023/04/09 00:48:35;;;;;;;79.68;43.78;;;8.50;99.90;;;;;;5026362;28;20045;-76
2023/04/09 00:51:01;;;;;;;75.35;43.22;;;8.50;99.90;;;;;;5027812;28;20450;-76
2023/04/09 00:53:27;;;;;;;77.90;42.60;;;8.50;99.90;;;;;;5034318;28;20045;-75
2023/04/09 00:55:54;;;;;;;79.45;42.03;;;8.60;99.90;;;;;;5028104;28;20461;-76
2023/04/09 00:58:20;;;;;;;78.93;42.50;;;8.40;99.90;;;;;;5034083;28;20057;-75
2023/04/09 01:00:46;;;;;;;79.60;43.22;;;8.40;99.90;;;;;;5037282;28;20328;-74
2023/04/09 01:03:11;;;;;;;77.18;42.67;;;8.40;99.90;;;;;;5019889;28;20076;-74
2023/04/09 01:05:54;;;;;;;76.93;42.45;;;8.40;99.90;;;;;;5025099;28;20137;-73
2023/04/09 01:08:47;;;;;;;86.00;42.53;;;8.40;99.90;;;;;;5034201;28;20413;-74
2023/04/09 01:11:30;;;;;;;81.03;42.05;;;8.40;99.90;;;;;;5011339;28;20045;-74
2023/04/09 01:14:18;;;;;;;74.38;41.33;;;8.40;99.90;;;;;;5030437;28;20056;-75
2023/04/09 01:16:51;;;;;;;81.82;40.35;;;8.30;99.90;;;;;;5035189;28;20110;-74
2023/04/09 01:19:34;;;;;;;75.57;42.10;;;8.30;99.90;;;;;;5018221;28;20049;-74
2023/04/09 01:22:03;;;;;;;82.47;42.20;;;8.30;99.90;;;;;;5027997;28;20498;-74
2023/04/09 01:24:37;;;;;;;84.53;41.85;;;8.30;99.90;;;;;;5031005;28;20308;-74
2023/04/09 01:27:07;;;;;;;74.07;40.35;;;8.30;99.90;;;;;;5032392;28;20032;-74
2023/04/09 01:29:45;;;;;;;71.10;39.63;;;8.30;99.90;;;;;;5028388;28;20111;-74
2023/04/09 01:32:16;;;;;;;77.35;41.13;;;8.30;99.90;;;;;;5035002;28;20080;-73
2023/04/09 01:34:44;;;;;;;75.32;39.83;;;8.30;99.90;;;;;;5038081;28;20055;-74
2023/04/09 01:37:12;;;;;;;76.50;39.88;;;8.30;99.90;;;;;;5034360;28;20045;-75
2023/04/09 01:39:38;;;;;;;74.97;40.33;;;8.30;99.90;;;;;;5031957;28;20125;-74
2023/04/09 01:42:08;;;;;;;76.07;42.33;;;8.30;99.90;;;;;;5036622;28;20073;-75
2023/04/09 01:44:38;;;;;;;76.18;39.92;;;8.30;99.90;;;;;;5035865;28;20045;-74
2023/04/09 01:47:04;;;;;;;77.07;40.75;;;8.30;99.90;;;;;;5033739;28;20037;-74
2023/04/09 01:49:30;;;;;;;69.47;37.25;;;8.30;99.90;;;;;;5037462;28;20051;-74
2023/04/09 01:51:56;;;;;;;67.88;35.05;;;8.30;99.90;;;;;;5031820;28;20056;-74
2023/04/09 01:54:22;;;;;;;62.50;36.08;;;8.30;99.90;;;;;;5028188;28;20044;-74
2023/04/09 01:56:48;;;;;;;61.85;34.92;;;8.30;99.90;;;;;;5035439;28;20144;-74
2023/04/09 01:59:14;;;;;;;58.90;33.90;;;8.30;99.90;;;;;;5027097;28;20046;-74
2023/04/09 02:01:57;;;;;;;63.42;33.45;;;8.30;99.90;;;;;;5042315;28;20049;-74
2023/04/09 02:04:29;;;;;;;62.45;34.30;;;8.30;99.90;;;;;;5017112;28;20107;-73
2023/04/09 02:07:05;;;;;;;60.80;32.88;;;8.30;99.90;;;;;;5034360;28;20099;-73
2023/04/09 02:09:32;;;;;;;56.40;32.28;;;8.20;99.90;;;;;;5032185;28;20052;-74
2023/04/09 02:12:02;;;;;;;50.38;29.73;;;8.20;99.90;;;;;;5037689;28;20037;-74
2023/04/09 02:14:31;;;;;;;51.97;29.45;;;8.20;99.90;;;;;;5033014;28;20076;-74
2023/04/09 02:16:57;;;;;;;53.03;30.23;;;8.20;99.90;;;;;;5031612;28;20075;-74
2023/04/09 02:19:22;;;;;;;51.90;28.80;;;8.20;99.90;;;;;;5036842;28;20425;-74
2023/04/09 02:21:48;;;;;;;48.08;27.08;;;8.20;99.90;;;;;;5038685;28;20171;-74
2023/04/09 02:24:14;;;;;;;47.75;28.05;;;8.20;99.90;;;;;;5046716;28;20036;-74
2023/04/09 02:26:40;;;;;;;49.67;28.77;;;8.20;99.90;;;;;;5035449;28;20052;-74
2023/04/09 02:29:05;;;;;;;43.03;25.38;;;8.20;99.90;;;;;;5041606;28;20029;-74
2023/04/09 02:31:31;;;;;;;50.88;26.58;;;8.20;99.90;;;;;;5031823;28;20049;-74
2023/04/09 02:33:57;;;;;;;43.83;26.02;;;8.20;99.90;;;;;;5032814;28;20048;-74
2023/04/09 02:36:23;;;;;;;44.13;23.77;;;8.20;99.90;;;;;;5018717;28;20045;-75
2023/04/09 02:38:48;;;;;;;43.95;24.15;;;8.10;99.90;;;;;;5043504;28;20574;-74
2023/04/09 02:41:14;;;;;;;43.20;24.70;;;8.10;99.90;;;;;;5042829;28;20049;-73
2023/04/09 02:43:40;;;;;;;40.40;24.42;;;8.10;99.90;;;;;;5042404;28;20065;-74
2023/04/09 02:46:06;;;;;;;44.05;23.83;;;8.10;99.90;;;;;;5022669;28;20029;-74
2023/04/09 02:48:32;;;;;;;43.30;24.27;;;8.10;99.90;;;;;;5035670;28;20911;-74
2023/04/09 02:50:57;;;;;;;44.35;24.17;;;8.10;99.90;;;;;;5042039;28;20147;-75
2023/04/09 02:53:24;;;;;;;44.10;23.70;;;8.10;99.90;;;;;;5044568;28;20444;-74
2023/04/09 02:55:49;;;;;;;43.30;24.25;;;8.10;99.90;;;;;;5043488;28;20045;-74
2023/04/09 02:58:15;;;;;;;46.03;25.10;;;8.10;99.90;;;;;;5043747;28;20055;-75
2023/04/09 03:00:41;;;;;;;43.13;23.90;;;8.10;99.90;;;;;;5039091;28;20048;-74
2023/04/09 03:03:06;;;;;;;45.55;25.25;;;8.10;99.90;;;;;;5035728;28;20446;-75
2023/04/09 03:05:32;;;;;;;40.67;23.33;;;8.10;99.90;;;;;;5047182;28;20444;-73
2023/04/09 03:07:58;;;;;;;42.03;24.33;;;8.00;99.90;;;;;;5046310;28;20124;-74
2023/04/09 03:10:24;;;;;;;46.80;24.77;;;8.00;99.90;;;;;;5041622;28;20049;-74
2023/04/09 03:12:49;;;;;;;43.10;24.08;;;8.40;99.90;;;;;;5046114;28;20045;-74
2023/04/09 03:15:15;;;;;;;43.65;24.10;;;8.00;99.90;;;;;;5040049;28;20038;-74
2023/04/09 03:17:41;;;;;;;41.47;23.63;;;8.00;99.90;;;;;;5041722;28;20516;-74
2023/04/09 03:20:07;;;;;;;44.85;23.42;;;8.00;99.90;;;;;;5045594;28;20104;-75
2023/04/09 03:22:37;;;;;;;45.60;24.60;;;8.00;99.90;;;;;;5045904;28;20033;-74
2023/04/09 03:25:03;;;;;;;42.25;23.67;;;8.00;99.90;;;;;;5045860;28;20040;-74
2023/04/09 03:27:29;;;;;;;40.72;22.92;;;8.00;99.90;;;;;;5042859;28;20506;-73
2023/04/09 03:29:55;;;;;;;44.55;23.98;;;7.90;99.90;;;;;;5042628;28;20084;-74
2023/04/09 03:32:21;;;;;;;42.13;23.90;;;7.90;99.90;;;;;;5018824;28;20052;-74
2023/04/09 03:34:46;;;;;;;40.70;23.33;;;7.90;99.90;;;;;;5046337;28;20040;-73
2023/04/09 03:37:12;;;;;;;39.03;22.95;;;7.90;99.90;;;;;;5044830;28;20116;-74
2023/04/09 03:39:38;;;;;;;40.60;23.02;;;7.90;99.90;;;;;;5029051;28;20053;-73
2023/04/09 03:42:03;;;;;;;44.75;22.83;;;7.90;99.90;;;;;;5035423;28;20049;-73
2023/04/09 03:44:29;;;;;;;39.35;23.23;;;7.90;99.90;;;;;;5034561;28;20100;-74
2023/04/09 03:46:55;;;;;;;40.95;23.45;;;8.20;99.90;;;;;;5028085;28;20045;-74
2023/04/09 03:49:20;;;;;;;42.20;23.63;;;7.90;99.90;;;;;;5032971;28;20041;-73
2023/04/09 03:51:46;;;;;;;44.50;24.67;;;7.80;99.90;;;;;;5035348;28;20033;-73
2023/04/09 03:54:12;;;;;;;43.03;23.95;;;7.80;99.90;;;;;;5030396;28;20037;-73
2023/04/09 03:56:38;;;;;;;46.08;25.33;;;7.80;99.90;;;;;;5036967;28;20428;-73
2023/04/09 03:59:03;;;;;;;48.90;25.95;;;8.00;99.90;;;;;;5026578;28;20045;-73
2023/04/09 04:01:29;;;;;;;43.45;25.25;;;7.80;99.90;;;;;;5031958;28;20104;-74
2023/04/09 04:03:55;;;;;;;39.97;24.60;;;7.80;99.90;;;;;;5031310;28;20052;-74
2023/04/09 04:06:21;;;;;;;43.40;23.45;;;7.80;99.90;;;;;;5033037;28;20062;-74
2023/04/09 04:08:47;;;;;;;49.90;25.92;;;7.80;99.90;;;;;;5035887;28;20410;-74
2023/04/09 04:11:12;;;;;;;42.47;24.42;;;7.80;99.90;;;;;;5035404;28;20053;-74
2023/04/09 04:13:38;;;;;;;45.13;25.48;;;7.70;99.90;;;;;;5034370;28;20045;-74
2023/04/09 04:16:08;;;;;;;44.35;24.88;;;7.70;99.90;;;;;;5016072;28;20044;-73
2023/04/09 04:18:35;;;;;;;45.37;24.30;;;7.70;99.90;;;;;;5028100;28;20053;-74
2023/04/09 04:21:01;;;;;;;45.25;25.55;;;7.80;99.90;;;;;;5035638;28;20052;-74
2023/04/09 04:23:26;;;;;;;46.38;25.88;;;7.70;99.90;;;;;;5007973;28;20045;-74
2023/04/09 04:25:52;;;;;;;45.35;25.40;;;7.70;99.90;;;;;;5014760;28;20049;-73
2023/04/09 04:28:18;;;;;;;44.13;25.00;;;7.70;99.90;;;;;;5026119;28;20128;-73
2023/04/09 04:30:44;;;;;;;42.53;24.40;;;7.70;99.90;;;;;;5033444;28;20053;-73
2023/04/09 04:33:09;;;;;;;46.22;25.63;;;7.70;99.90;;;;;;5028694;28;20041;-74
2023/04/09 04:35:35;;;;;;;42.58;24.25;;;7.70;99.90;;;;;;5033519;28;20648;-73
2023/04/09 04:38:01;;;;;;;48.60;26.10;;;7.60;99.90;;;;;;5035366;28;20045;-74
2023/04/09 04:40:27;;;;;;;47.47;26.30;;;7.70;99.90;;;;;;5030884;28;20075;-74
2023/04/09 04:42:52;;;;;;;41.97;25.17;;;7.70;99.90;;;;;;5045089;28;20049;-74
2023/04/09 04:45:18;;;;;;;49.83;26.38;;;7.70;99.90;;;;;;5048073;28;20049;-73
2023/04/09 04:47:44;;;;;;;45.15;26.42;;;7.70;99.90;;;;;;5028896;28;20049;-74
2023/04/09 04:50:10;;;;;;;44.88;25.13;;;7.70;99.90;;;;;;5047229;28;20041;-74
2023/04/09 04:52:36;;;;;;;46.13;26.55;;;7.60;99.90;;;;;;5036338;28;20099;-74
2023/04/09 04:55:01;;;;;;;44.63;25.88;;;7.60;99.90;;;;;;5037187;28;20036;-74
2023/04/09 04:57:27;;;;;;;46.05;26.92;;;7.70;99.90;;;;;;5043901;28;20029;-74
2023/04/09 04:59:53;;;;;;;46.03;25.90;;;8.00;99.90;;;;;;5040478;28;20087;-73
2023/04/09 05:02:18;;;;;;;53.15;26.98;;;7.60;99.90;;;;;;5043880;28;20041;-74
2023/04/09 05:04:44;;;;;;;47.00;27.13;;;7.60;99.90;;;;;;5030811;28;20098;-74
2023/04/09 05:07:10;;;;;;;44.95;26.02;;;7.60;99.90;;;;;;5043744;28;20040;-74
2023/04/09 05:09:36;;;;;;;51.85;26.67;;;7.60;99.90;;;;;;5040027;28;20091;-74
2023/04/09 05:12:02;;;;;;;45.35;26.88;;;7.60;99.90;;;;;;5045387;28;20751;-73
2023/04/09 05:14:28;;;;;;;45.10;26.70;;;7.60;99.90;;;;;;5046987;28;20059;-73
2023/04/09 05:16:53;;;;;;;47.35;27.85;;;7.60;99.90;;;;;;5040535;28;20049;-73
2023/04/09 05:19:19;;;;;;;50.03;26.55;;;7.60;99.90;;;;;;5044393;28;20635;-73
2023/04/09 05:21:45;;;;;;;50.50;29.08;;;7.60;99.90;;;;;;5042833;28;20053;-73
2023/04/09 05:24:11;;;;;;;48.67;27.30;;;7.60;99.90;;;;;;5044338;28;20536;-74
2023/04/09 05:26:36;;;;;;;49.63;27.42;;;7.60;99.90;;;;;;5046869;28;20479;-73
2023/04/09 05:29:02;;;;;;;47.97;27.00;;;7.60;99.90;;;;;;5027180;28;20041;-74
2023/04/09 05:31:28;;;;;;;50.20;26.75;;;7.60;99.90;;;;;;5037058;28;20041;-74
2023/04/09 05:33:53;;;;;;;44.75;24.67;;;7.60;99.90;;;;;;5041966;28;20478;-73
2023/04/09 05:36:19;;;;;;;43.47;25.20;;;7.60;99.90;;;;;;5016316;28;20457;-74
2023/04/09 05:38:45;;;;;;;41.20;23.80;;;7.60;99.90;;;;;;5034403;28;20075;-73
2023/04/09 05:41:12;;;;;;;38.78;22.48;;;7.60;99.90;;;;;;5029172;28;20059;-74
2023/04/09 05:43:37;;;;;;;36.65;21.65;;;7.60;99.90;;;;;;5037816;28;20524;-73
2023/04/09 05:46:03;;;;;;;43.03;21.85;;;7.60;99.90;;;;;;5026204;28;20041;-74
2023/04/09 05:48:29;;;;;;;35.25;20.65;;;7.60;99.90;;;;;;5036343;28;20544;-73
2023/04/09 05:50:55;;;;;;;35.03;21.25;;;7.50;99.90;;;;;;5032617;28;20072;-74
2023/04/09 05:53:21;;;;;;;34.58;20.58;;;7.60;99.90;;;;;;5050980;28;20060;-73
2023/04/09 05:55:48;;;;;;;38.55;21.13;;;7.60;99.90;;;;;;5028658;28;20075;-74
2023/04/09 05:58:17;;;;;;;36.90;20.48;;;7.60;99.90;;;;;;5010966;28;20120;-74
2023/04/09 06:00:43;;;;;;;33.22;20.83;;;7.50;99.90;;;;;;5024681;28;20502;-74
2023/04/09 06:03:09;;;;;;;36.15;21.42;;;7.60;99.90;;;;;;5034526;28;20130;-74
2023/04/09 06:05:35;;;;;;;36.50;21.52;;;7.60;99.90;;;;;;5030209;28;20487;-74
2023/04/09 06:08:01;;;;;;;38.55;21.88;;;7.60;99.90;;;;;;5025504;28;20045;-74
2023/04/09 06:10:27;;;;;;;34.33;21.85;;;7.60;99.90;;;;;;5025935;28;20064;-75
2023/04/09 06:12:52;;;;;;;36.90;22.15;;;7.60;99.90;;;;;;5021722;28;20156;-74
2023/04/09 06:15:19;;;;;;;37.75;21.77;;;7.60;99.90;;;;;;5016043;28;20172;-74
2023/04/09 06:17:45;;;;;;;41.10;22.30;;;7.60;99.90;;;;;;5020191;28;20045;-74
2023/04/09 06:20:11;;;;;;;42.38;23.55;;;7.60;99.90;;;;;;5020922;28;20571;-74
2023/04/09 06:22:36;;;;;;;43.53;24.27;;;7.60;99.90;;;;;;5025369;28;20148;-73
2023/04/09 06:25:02;;;;;;;36.72;22.40;;;7.60;99.90;;;;;;5024233;28;20052;-74
2023/04/09 06:27:28;;;;;;;38.40;22.65;;;7.60;99.90;;;;;;5024691;28;20042;-74
2023/04/09 06:29:54;;;;;;;39.90;23.60;;;7.70;99.90;;;;;;5025421;28;20115;-73
2023/04/09 06:32:19;;;;;;;41.63;24.67;;;8.10;99.90;;;;;;5008633;28;20060;-74
2023/04/09 06:34:45;;;;;;;44.35;24.05;;;7.70;99.90;;;;;;5017092;28;20042;-75
2023/04/09 06:37:11;;;;;;;43.10;23.80;;;7.70;99.90;;;;;;5019064;28;20645;-73
2023/04/09 06:39:37;;;;;;;40.42;23.20;;;7.70;99.90;;;;;;4998782;28;20056;-73
2023/04/09 06:42:03;;;;;;;34.00;21.42;;;8.10;99.90;;;;;;5018841;28;20526;-74
2023/04/09 06:44:33;;;;;;;40.45;23.30;;;7.70;99.90;;;;;;5023642;28;20111;-74
2023/04/09 06:46:59;;;;;;;36.33;21.58;;;7.70;99.90;;;;;;5005920;28;20054;-74
2023/04/09 06:49:25;;;;;;;37.58;22.33;;;7.70;99.90;;;;;;5025197;28;20088;-74
2023/04/09 06:51:52;;;;;;;33.88;20.98;;;7.80;99.90;;;;;;5023722;28;20106;-76
2023/04/09 06:54:19;;;;;;;35.75;21.13;;;7.80;99.90;;;;;;5023816;28;20049;-73
2023/04/09 06:56:45;;;;;;;35.25;20.80;;;8.10;99.90;;;;;;5023339;28;20604;-73
2023/04/09 06:59:11;;;;;;;38.30;21.77;;;7.70;99.90;;;;;;5026006;28;20109;-74
2023/04/09 07:01:37;;;;;;;36.75;22.10;;;7.70;99.90;;;;;;5026928;28;20202;-74
2023/04/09 07:04:03;;;;;;;39.03;22.75;;;7.70;99.90;;;;;;5018346;28;20577;-74
2023/04/09 07:06:29;;;;;;;38.85;22.75;;;7.70;99.90;;;;;;5017511;28;20053;-74
2023/04/09 07:08:55;;;;;;;34.33;21.27;;;7.70;99.90;;;;;;5025558;28;20102;-74
2023/04/09 07:11:20;;;;;;;40.13;23.75;;;7.70;99.90;;;;;;5024056;28;20049;-74
2023/04/09 07:13:46;;;;;;;37.95;22.23;;;7.70;99.90;;;;;;5024308;28;20057;-74
2023/04/09 07:16:12;;;;;;;36.08;21.92;;;7.70;99.90;;;;;;5008777;28;20056;-74
2023/04/09 07:18:37;;;;;;;39.22;22.40;;;7.80;99.90;;;;;;5026186;28;20056;-74
2023/04/09 07:21:04;;;;;;;35.22;22.63;;;7.80;99.90;;;;;;5008409;28;20082;-74
2023/04/09 07:23:33;;;;;;;36.83;22.73;;;8.00;99.90;;;;;;5024931;28;20053;-74
2023/04/09 07:26:02;;;;;;;40.75;22.58;;;7.90;99.90;;;;;;5026298;28;20054;-74
2023/04/09 07:28:28;;;;;;;41.10;24.10;;;7.80;99.90;;;;;;5025240;28;20046;-74
2023/04/09 07:30:54;;;;;;;37.83;22.42;;;7.80;99.90;;;;;;5008703;28;20049;-74
2023/04/09 07:33:19;;;;;;;39.08;22.42;;;7.80;99.90;;;;;;5025228;28;20068;-74
2023/04/09 07:35:45;;;;;;;37.13;22.70;;;7.80;99.90;;;;;;5025707;28;20084;-74
2023/04/09 07:38:11;;;;;;;35.70;21.77;;;7.90;99.90;;;;;;5026365;28;20041;-74
2023/04/09 07:40:37;;;;;;;37.95;22.15;;;7.90;99.90;;;;;;5009035;28;20150;-74
2023/04/09 07:43:04;;;;;;;39.45;23.60;;;7.90;99.90;;;;;;5025439;28;20091;-74
2023/04/09 07:45:30;;;;;;;37.38;20.67;;;8.30;99.90;;;;;;5026203;28;20549;-74
2023/04/09 07:47:56;;;;;;;37.88;22.85;;;7.90;99.90;;;;;;5026288;28;20124;-74
2023/04/09 07:50:21;;;;;;;38.00;22.02;;;8.00;99.90;;;;;;5025857;28;20136;-74
2023/04/09 07:52:47;;;;;;;38.88;22.80;;;8.00;99.90;;;;;;5026219;28;20060;-73
2023/04/09 07:55:13;;;;;;;44.38;23.70;;;8.00;99.90;;;;;;5026105;28;20550;-74
2023/04/09 07:57:38;;;;;;;39.47;22.80;;;8.00;99.90;;;;;;5005917;28;20061;-74
2023/04/09 08:00:05;;;;;;;39.65;23.42;;;8.00;99.90;;;;;;5018569;28;20049;-74
2023/04/09 08:02:31;;;;;;;36.95;21.70;;;8.00;99.90;;;;;;5026796;28;20121;-74
2023/04/09 08:04:57;;;;;;;39.15;22.98;;;8.00;99.90;;;;;;5031061;28;20464;-74
2023/04/09 08:07:23;;;;;;;42.15;24.90;;;8.00;99.90;;;;;;5046166;28;20058;-74
2023/04/09 08:09:49;;;;;;;42.25;23.83;;;8.00;99.90;;;;;;5047798;28;20068;-74
2023/04/09 08:12:15;;;;;;;44.15;24.20;;;8.10;99.90;;;;;;5047793;28;20454;-74
2023/04/09 08:14:40;;;;;;;38.20;24.15;;;8.10;99.90;;;;;;5035148;28;20124;-74
2023/04/09 08:17:06;;;;;;;41.45;24.17;;;8.10;99.90;;;;;;5025759;28;20111;-74
2023/04/09 08:19:32;;;;;;;44.05;25.40;;;8.20;99.90;;;;;;5026874;28;20569;-74
2023/04/09 08:21:57;;;;;;;44.28;25.20;;;8.20;99.90;;;;;;5026680;28;20041;-74
2023/04/09 08:24:23;;;;;;;41.90;24.73;;;8.60;99.90;;;;;;5026910;28;20033;-74
2023/04/09 08:26:49;;;;;;;43.28;24.65;;;8.20;99.90;;;;;;5027653;28;20049;-74
2023/04/09 08:29:15;;;;;;;43.22;24.77;;;8.30;99.90;;;;;;5026719;28;20075;-74
2023/04/09 08:31:41;;;;;;;43.42;26.15;;;8.30;99.90;;;;;;5024660;28;20494;-74
2023/04/09 08:34:07;;;;;;;44.58;25.50;;;8.30;99.90;;;;;;5025895;28;20051;-75
2023/04/09 08:36:34;;;;;;;43.30;25.52;;;8.30;99.90;;;;;;5026897;28;20046;-75
2023/04/09 08:39:00;;;;;;;43.85;26.98;;;8.40;99.90;;;;;;5009729;28;20049;-74
2023/04/09 08:41:30;;;;;;;46.78;28.25;;;8.40;99.90;;;;;;5025305;28;20053;-75
2023/04/09 08:43:56;;;;;;;48.35;28.30;;;8.40;99.90;;;;;;5027774;28;20049;-74
2023/04/09 08:46:22;;;;;;;49.78;27.33;;;8.40;99.90;;;;;;5025481;28;20049;-74
2023/04/09 08:48:50;;;;;;;46.25;26.77;;;8.40;99.90;;;;;;5024760;28;20095;-74
2023/04/09 08:51:20;;;;;;;51.40;30.02;;;8.50;99.90;;;;;;5025837;28;20054;-75
2023/04/09 08:53:55;;;;;;;45.30;26.77;;;8.50;99.90;;;;;;5025378;28;20167;-75
2023/04/09 08:56:22;;;;;;;47.60;27.50;;;8.40;99.90;;;;;;5025735;28;20045;-74
2023/04/09 08:58:49;;;;;;;49.50;28.80;;;8.40;99.90;;;;;;5025213;28;20057;-74
2023/04/09 09:01:22;;;;;;;47.50;26.80;;;8.50;99.90;;;;;;5025597;28;20223;-75
2023/04/09 09:03:55;;;;;;;50.42;27.20;;;8.50;99.90;;;;;;5009303;28;20057;-75
2023/04/09 09:06:28;;;;;;;50.90;28.80;;;8.50;99.90;;;;;;5041217;28;20513;-75
2023/04/09 09:09:00;;;;;;;46.35;26.60;;;8.60;99.90;;;;;;5045572;28;20082;-74
2023/04/09 09:11:27;;;;;;;50.05;27.35;;;8.60;99.90;;;;;;5046656;28;20044;-74
2023/04/09 09:13:59;;;;;;;44.45;25.10;;;8.60;99.90;;;;;;5044725;28;20055;-74
2023/04/09 09:16:26;;;;;;;50.78;27.73;;;8.70;99.90;;;;;;5045060;28;20733;-76
2023/04/09 09:18:51;;;;;;;45.30;26.55;;;8.90;99.90;;;;;;5018912;28;20502;-74
2023/04/09 09:21:18;;;;;;;48.97;27.85;;;8.70;99.90;;;;;;5025345;28;20052;-75
2023/04/09 09:23:44;;;;;;;48.42;27.77;;;8.80;99.90;;;;;;5008978;28;20049;-75
2023/04/09 09:26:15;;;;;;;44.63;27.33;;;8.80;99.90;;;;;;5027052;28;20045;-75
2023/04/09 09:28:41;;;;;;;45.75;26.65;;;8.80;99.90;;;;;;5008341;28;20064;-75
2023/04/09 09:31:11;;;;;;;44.33;26.20;;;8.90;99.90;;;;;;5028780;28;20521;-75
2023/04/09 09:33:38;;;;;;;45.17;27.50;;;8.90;99.90;;;;;;5028920;28;20485;-75
2023/04/09 09:36:04;;;;;;;42.78;26.58;;;8.90;99.90;;;;;;5028504;28;20461;-76
2023/04/09 09:38:31;;;;;;;47.75;27.95;;;8.90;99.90;;;;;;5028681;28;20049;-75
2023/04/09 09:40:57;;;;;;;44.50;26.05;;;9.00;99.90;;;;;;5043819;28;20099;-74
2023/04/09 09:43:23;;;;;;;47.50;27.27;;;9.00;99.90;;;;;;5049567;28;20411;-75
2023/04/09 09:45:49;;;;;;;44.25;26.42;;;9.10;99.90;;;;;;5015438;28;20106;-75
2023/04/09 09:48:15;;;;;;;44.33;25.90;;;9.10;99.90;;;;;;5049382;28;20090;-75
2023/04/09 09:50:43;;;;;;;43.47;27.58;;;9.10;99.90;;;;;;5015843;28;20379;-75
2023/04/09 09:53:10;;;;;;;47.15;27.83;;;9.20;99.90;;;;;;5032352;28;20049;-75
2023/04/09 09:55:42;;;;;;;44.33;25.65;;;9.30;99.90;;;;;;5014755;28;20049;-75
2023/04/09 09:58:22;;;;;;;;;;;9.30;99.90;;;;;;5032915;28;20127;-75
2023/04/09 10:00:51;;;;;;;43.55;26.02;;;9.40;99.90;;;;;;5015520;28;20340;-75
2023/04/09 10:03:24;;;;;;;43.50;26.05;;;9.40;99.90;;;;;;5031888;28;20110;-75
2023/04/09 10:05:50;;;;;;;43.28;25.92;;;9.50;99.90;;;;;;5044699;28;20553;-75
2023/04/09 10:08:16;;;;;;;42.58;25.42;;;9.50;99.90;;;;;;5052511;28;20040;-74
2023/04/09 10:10:43;;;;;;;41.45;25.02;;;9.60;99.90;;;;;;5051692;28;20049;-75
2023/04/09 10:13:20;;;;;;;41.72;27.23;;;9.60;99.90;;;;;;5069538;28;20037;-75
2023/04/09 10:15:46;;;;;;;41.83;24.42;;;9.60;99.90;;;;;;5050766;28;20099;-75
2023/04/09 10:18:13;;;;;;;41.33;24.65;;;9.70;99.90;;;;;;5031953;28;20037;-74
2023/04/09 10:20:55;;;;;;;38.67;24.88;;;9.70;99.90;;;;;;5049857;28;20037;-75
2023/04/09 10:23:30;;;;;;;39.45;23.80;;;9.80;99.90;;;;;;5048721;28;20048;-75
2023/04/09 10:25:57;;;;;;;38.70;24.13;;;9.80;99.90;;;;;;5015397;28;20080;-75
2023/04/09 10:28:23;;;;;;;41.97;25.67;;;9.90;99.90;;;;;;5049260;28;20048;-75
2023/04/09 10:30:49;;;;;;;40.70;25.40;;;10.00;99.90;;;;;;5010574;28;20041;-75
2023/04/09 10:33:20;;;;;;;41.22;24.95;;;10.00;99.90;;;;;;5019944;28;20048;-75
2023/04/09 10:35:47;;;;;;;37.35;23.58;;;10.10;99.90;;;;;;5014370;28;20505;-75
2023/04/09 10:38:16;;;;;;;38.25;24.20;;;10.20;99.90;;;;;;5030269;28;20100;-75
2023/04/09 10:40:50;;;;;;;40.80;24.08;;;10.30;99.90;;;;;;5030046;28;20053;-75
2023/04/09 10:43:20;;;;;;;40.78;24.85;;;10.50;99.90;;;;;;5031242;28;20048;-75
2023/04/09 10:45:52;;;;;;;37.60;22.42;;;10.50;99.90;;;;;;5030304;28;20127;-75
2023/04/09 10:48:20;;;;;;;35.88;23.38;;;10.70;99.90;;;;;;5048513;28;20057;-75
2023/04/09 10:50:50;;;;;;;37.85;24.30;;;10.70;99.90;;;;;;5013859;28;20148;-75
2023/04/09 10:53:24;;;;;;;38.80;24.53;;;10.70;99.90;;;;;;5029988;28;20053;-75
2023/04/09 10:55:52;;;;;;;39.42;23.30;;;10.80;99.90;;;;;;5031206;28;20471;-75
2023/04/09 10:58:18;;;;;;;36.72;22.05;;;10.80;99.90;;;;;;5013553;28;20053;-76
2023/04/09 11:00:45;;;;;;;36.08;22.73;;;10.80;99.90;;;;;;5048522;28;20041;-75
2023/04/09 11:03:20;;;;;;;37.20;24.17;;;10.90;99.90;;;;;;5030365;28;20055;-75
2023/04/09 11:06:04;;;;;;;34.00;22.05;;;10.90;99.90;;;;;;5041279;28;20558;-75
2023/04/09 11:08:32;;;;;;;35.10;22.92;;;11.10;99.90;;;;;;5050196;28;20481;-75
2023/04/09 11:10:59;;;;;;;36.28;22.85;;;11.10;99.90;;;;;;5068624;28;20040;-76
2023/04/09 11:13:26;;;;;;;36.35;22.05;;;11.10;99.90;;;;;;5067520;28;20135;-75
2023/04/09 11:15:53;;;;;;;34.42;22.67;;;11.20;99.90;;;;;;5050357;28;20048;-76
2023/04/09 11:18:24;;;;;;;37.67;22.88;;;11.30;99.90;;;;;;5048575;28;20049;-75
2023/04/09 11:20:54;;;;;;;37.55;24.10;;;11.40;99.90;;;;;;5047334;28;20595;-76
2023/04/09 11:23:20;;;;;;;35.75;22.58;;;11.40;99.90;;;;;;5030370;28;20056;-75
2023/04/09 11:25:50;;;;;;;35.10;21.98;;;11.40;99.90;;;;;;5030259;28;20494;-75
2023/04/09 11:28:17;;;;;;;33.88;21.27;;;11.50;99.90;;;;;;5047337;28;20106;-75
2023/04/09 11:30:43;;;;;;;34.22;22.50;;;11.60;99.90;;;;;;5047880;28;20033;-75
2023/04/09 11:33:09;;;;;;;34.60;22.20;;;11.80;99.90;;;;;;5013783;28;20048;-74
2023/04/09 11:35:37;;;;;;;34.17;20.95;;;11.90;99.90;;;;;;5048252;28;20704;-74
2023/04/09 11:38:11;;;;;;;35.90;21.60;;;11.90;99.90;;;;;;5048289;28;20045;-75
2023/04/09 11:40:50;;;;;;;32.92;20.70;;;11.90;99.90;;;;;;5047777;28;20164;-75
2023/04/09 11:43:16;;;;;;;34.85;21.88;;;11.90;99.90;;;;;;5030670;28;20056;-75
2023/04/09 11:45:43;;;;;;;31.05;20.60;;;11.90;99.90;;;;;;5014935;28;20579;-74
2023/04/09 11:48:10;;;;;;;33.63;21.45;;;11.90;99.90;;;;;;5031784;28;20426;-74
2023/04/09 11:50:36;;;;;;;31.35;19.83;;;12.00;99.90;;;;;;5050277;28;20055;-75
2023/04/09 11:53:17;;;;;;;32.45;19.92;;;12.00;99.90;;;;;;5049987;28;20081;-74
2023/04/09 11:55:46;;;;;;;30.58;19.17;;;12.00;99.90;;;;;;5030385;28;20055;-75
2023/04/09 11:58:12;;;;;;;30.27;19.63;;;12.00;99.90;;;;;;5030709;28;20084;-75
2023/04/09 12:00:39;;;;;;;32.45;19.98;;;12.00;99.90;;;;;;5029797;28;20115;-75
2023/04/09 12:03:05;;;;;;;29.73;19.20;;;12.10;99.90;;;;;;5029330;28;20052;-74
2023/04/09 12:05:32;;;;;;;29.02;18.08;;;12.20;99.90;;;;;;5039668;28;20056;-74
2023/04/09 12:08:05;;;;;;;28.10;19.10;;;12.20;99.90;;;;;;5068454;28;20062;-75
2023/04/09 12:10:36;;;;;;;30.85;18.83;;;12.30;99.90;;;;;;5049894;28;20040;-74
2023/04/09 12:13:05;;;;;;;27.40;18.02;;;12.40;99.90;;;;;;5033702;28;20165;-74
2023/04/09 12:15:33;;;;;;;30.98;19.17;;;12.60;99.90;;;;;;5048933;28;20037;-75
2023/04/09 12:17:59;;;;;;;27.70;18.17;;;12.70;99.90;;;;;;5040218;28;20076;-75
2023/04/09 12:20:46;;;;;;;27.40;17.63;;;12.80;99.90;;;;;;5048012;28;20057;-76
2023/04/09 12:23:12;;;;;;;27.58;17.38;;;12.90;99.90;;;;;;5029595;28;20052;-75
2023/04/09 12:25:40;;;;;;;27.55;17.23;;;13.00;99.90;;;;;;5029890;28;20090;-76
2023/04/09 12:28:08;;;;;;;29.08;18.30;;;13.10;99.90;;;;;;5029648;28;20045;-75
2023/04/09 12:30:34;;;;;;;27.23;18.23;;;13.00;99.90;;;;;;5011735;28;20041;-74
2023/04/09 12:33:01;;;;;;;28.58;17.80;;;13.00;99.90;;;;;;5010128;28;20045;-76
2023/04/09 12:35:28;;;;;;;27.30;17.70;;;13.00;99.90;;;;;;5028700;28;20670;-76
2023/04/09 12:37:54;;;;;;;28.27;18.10;;;13.10;99.90;;;;;;5046310;28;20044;-76